Time;durP1;ratioP1;P1;durP2;ratioP2;P2;SDS_P1;SDS_P2;PMS_P1;PMS_P2;Temp;Humidity;BMP_temperature;BMP_pressure;BME280_temperature;BME280_humidity;BME280_pressure;Samples;Min_cycle;Max_cycle;Signal;HPM_P1;HPM_P2
2022/10/23 00:00:08;;;;;;;9.82;9.32;;;;;;;11.92;100.00;100529.41;5080493;28;20439;-62
2022/10/23 00:02:34;;;;;;;9.20;8.80;;;;;;;11.99;100.00;100535.63;5081762;28;20034;-62
2022/10/23 00:04:59;;;;;;;9.80;9.35;;;;;;;12.05;100.00;100538.38;5082109;28;20036;-63
2022/10/23 00:07:25;;;;;;;9.27;8.88;;;;;;;12.05;100.00;100541.06;5085202;28;20119;-63
2022/10/23 00:09:51;;;;;;;9.57;9.15;;;;;;;12.21;100.00;100540.03;5086493;28;20034;-63
2022/10/23 00:12:16;;;;;;;9.38;8.98;;;;;;;12.14;100.00;100539.13;5078981;28;20533;-63
2022/10/23 00:14:42;;;;;;;9.80;9.30;;;;;;;12.14;100.00;100534.63;5082377;28;20112;-63
2022/10/23 00:17:09;;;;;;;9.40;9.00;;;;;;;12.06;100.00;100540.03;5081755;28;20033;-63
2022/10/23 00:19:34;;;;;;;9.50;9.10;;;;;;;12.11;100.00;100540.28;5074170;28;20070;-63
2022/10/23 00:22:00;;;;;;;9.60;9.20;;;;;;;12.05;100.00;100524.28;5079651;28;20028;-62
2022/10/23 00:24:25;;;;;;;9.35;8.95;;;;;;;12.03;100.00;100527.09;5080415;28;20108;-62
2022/10/23 00:26:51;;;;;;;9.68;9.20;;;;;;;12.03;100.00;100535.06;5086063;28;20027;-62
2022/10/23 00:29:16;;;;;;;10.68;10.18;;;;;;;11.92;100.00;100534.72;5087123;28;20032;-63
2022/10/23 00:31:42;;;;;;;9.50;9.10;;;;;;;11.97;100.00;100538.47;5086503;28;20024;-63
2022/10/23 00:34:09;;;;;;;9.20;8.80;;;;;;;11.99;100.00;100540.94;5086667;28;20020;-63
2022/10/23 00:36:35;;;;;;;9.15;8.75;;;;;;;11.94;100.00;100540.66;5081825;28;20030;-62
2022/10/23 00:39:01;;;;;;;9.25;8.85;;;;;;;12.05;100.00;100548.19;5084493;28;20104;-63
2022/10/23 00:41:28;;;;;;;9.48;9.07;;;;;;;12.10;100.00;100533.31;5086516;28;20073;-62
2022/10/23 00:43:59;;;;;;;9.63;9.20;;;;;;;12.05;100.00;100535.72;5082751;28;20022;-62
2022/10/23 00:46:25;;;;;;;9.70;9.20;;;;;;;12.04;100.00;100534.06;5087075;28;20425;-62
2022/10/23 00:48:50;;;;;;;9.38;8.98;;;;;;;12.02;100.00;100551.22;5081608;28;20028;-63
2022/10/23 00:51:17;;;;;;;9.32;8.93;;;;;;;12.01;100.00;100547.72;5086710;28;20410;-62
2022/10/23 00:53:43;;;;;;;9.50;9.10;;;;;;;12.03;100.00;100568.81;5088604;28;20039;-62
2022/10/23 00:56:10;;;;;;;9.15;8.75;;;;;;;11.92;100.00;100570.09;5081421;28;20441;-62
2022/10/23 00:58:35;;;;;;;9.45;9.05;;;;;;;11.89;100.00;100586.41;5081293;28;20106;-63
2022/10/23 01:01:01;;;;;;;9.57;9.10;;;;;;;11.94;100.00;100585.88;5075551;28;20071;-63
2022/10/23 01:03:27;;;;;;;9.20;8.80;;;;;;;11.98;100.00;100598.63;5085731;28;20024;-63
2022/10/23 01:06:01;;;;;;;9.45;9.05;;;;;;;11.94;100.00;100599.16;5086823;28;20035;-64
2022/10/23 01:08:39;;;;;;;9.40;9.00;;;;;;;12.01;100.00;100600.91;5081679;28;20016;-63
2022/10/23 01:11:08;;;;;;;9.50;9.10;;;;;;;12.05;100.00;100606.69;5077467;28;20029;-64
2022/10/23 01:13:54;;;;;;;9.00;8.60;;;;;;;11.94;100.00;100617.75;5084376;28;20027;-63
2022/10/23 01:16:28;;;;;;;9.40;9.00;;;;;;;11.97;100.00;100614.72;5084612;28;20547;-62
2022/10/23 01:19:00;;;;;;;9.68;9.18;;;;;;;11.94;100.00;100621.25;5082043;28;20035;-62
2022/10/23 01:21:38;;;;;;;10.00;9.50;;;;;;;11.92;100.00;100620.59;5081528;28;20498;-63
2022/10/23 01:24:14;;;;;;;9.40;9.00;;;;;;;11.86;100.00;100616.84;5079916;28;20035;-62
2022/10/23 01:26:54;;;;;;;9.20;8.80;;;;;;;11.93;100.00;100616.94;5081891;28;20373;-62
2022/10/23 01:29:24;;;;;;;9.85;9.35;;;;;;;11.84;100.00;100616.19;5089057;28;20478;-62
2022/10/23 01:32:02;;;;;;;9.55;9.10;;;;;;;11.87;100.00;100615.81;5082656;28;20028;-63
2022/10/23 01:34:38;;;;;;;9.38;8.98;;;;;;;11.75;100.00;100613.75;5082354;28;20016;-62
2022/10/23 01:37:09;;;;;;;9.20;8.80;;;;;;;11.65;100.00;100618.50;5080824;28;20077;-62
2022/10/23 01:39:39;;;;;;;9.15;8.75;;;;;;;11.69;100.00;100625.13;5084673;28;20043;-63
2022/10/23 01:42:12;;;;;;;9.23;8.82;;;;;;;11.60;100.00;100632.31;5086784;28;20150;-64
2022/10/23 01:44:40;;;;;;;9.25;8.85;;;;;;;11.55;100.00;100635.50;5086624;28;20488;-64
2022/10/23 01:47:08;;;;;;;9.35;8.95;;;;;;;11.53;100.00;100626.06;5091754;28;20035;-62
2022/10/23 01:49:38;;;;;;;9.63;9.18;;;;;;;11.61;100.00;100637.47;5086276;28;20036;-62
2022/10/23 01:52:07;;;;;;;9.60;9.15;;;;;;;11.67;100.00;100645.72;5083837;28;20024;-63
2022/10/23 01:54:37;;;;;;;9.27;8.88;;;;;;;11.63;100.00;100645.25;5088826;28;20032;-63
2022/10/23 01:57:06;;;;;;;9.40;9.00;;;;;;;11.66;100.00;100652.03;5088105;28;20085;-64
2022/10/23 01:59:37;;;;;;;9.50;9.10;;;;;;;11.67;100.00;100657.16;5092244;28;20024;-63
2022/10/23 02:02:05;;;;;;;9.45;9.05;;;;;;;11.71;100.00;100655.00;5089740;28;20031;-63
2022/10/23 02:04:38;;;;;;;9.40;9.00;;;;;;;11.77;100.00;100664.91;5087273;28;20449;-63
2022/10/23 02:07:04;;;;;;;9.38;8.98;;;;;;;11.74;100.00;100652.78;5085651;28;20173;-63
2022/10/23 02:09:31;;;;;;;9.20;8.80;;;;;;;11.79;100.00;100663.72;5085814;28;20499;-63
2022/10/23 02:12:05;;;;;;;9.30;8.90;;;;;;;11.76;100.00;100657.94;5077347;28;20047;-63
2022/10/23 02:14:46;;;;;;;9.23;8.82;;;;;;;11.78;100.00;100663.91;5081415;28;20028;-64
2022/10/23 02:17:59;;;;;;;9.43;9.02;;;;;;;11.64;100.00;100668.16;5088851;28;20047;-63
2022/10/23 02:20:28;;;;;;;9.10;8.70;;;;;;;11.75;100.00;100665.09;5084486;28;20043;-63
2022/10/23 02:23:06;;;;;;;10.00;9.50;;;;;;;11.74;100.00;100674.03;5089251;28;20032;-63
2022/10/23 02:25:43;;;;;;;9.50;9.10;;;;;;;11.73;100.00;100679.53;5090405;28;20035;-63
2022/10/23 02:28:13;;;;;;;9.30;8.90;;;;;;;11.76;100.00;100677.38;5085607;28;20020;-63
2022/10/23 02:30:42;;;;;;;10.00;9.50;;;;;;;11.79;100.00;100684.16;5083950;28;20062;-62
2022/10/23 02:33:09;;;;;;;9.40;9.00;;;;;;;11.63;100.00;100677.13;5087616;28;20530;-62
2022/10/23 02:35:34;;;;;;;9.40;9.00;;;;;;;11.73;100.00;100679.53;5087065;28;20028;-62
2022/10/23 02:38:00;;;;;;;9.35;8.95;;;;;;;11.66;100.00;100681.25;5076432;28;20570;-63
2022/10/23 02:40:40;;;;;;;9.38;8.98;;;;;;;11.62;100.00;100683.47;5083379;28;20036;-63
2022/10/23 02:43:34;;;;;;;9.43;9.02;;;;;;;11.63;100.00;100690.44;5085040;28;20027;-63
2022/10/23 02:46:13;;;;;;;9.00;8.60;;;;;;;11.66;100.00;100700.69;5080852;28;20372;-63
2022/10/23 02:48:47;;;;;;;9.65;9.15;;;;;;;11.58;100.00;100700.75;5083105;28;20029;-63
2022/10/23 02:51:21;;;;;;;9.15;8.75;;;;;;;11.63;100.00;100703.72;5085378;28;20550;-62
2022/10/23 02:54:01;;;;;;;9.98;9.48;;;;;;;11.60;100.00;100706.69;5085299;28;20075;-64
2022/10/23 02:56:39;;;;;;;9.20;8.80;;;;;;;11.63;100.00;100712.50;5088013;28;20101;-63
2022/10/23 02:59:26;;;;;;;9.18;8.77;;;;;;;11.66;100.00;100716.63;5087483;28;20502;-62
2022/10/23 03:02:03;;;;;;;9.23;8.82;;;;;;;11.53;100.00;100721.69;5086358;28;20024;-62
2022/10/23 03:04:30;;;;;;;9.30;8.90;;;;;;;11.43;100.00;100727.25;5085673;28;20115;-62
2022/10/23 03:06:56;;;;;;;9.77;9.27;;;;;;;11.54;100.00;100734.81;5087221;28;20028;-63
2022/10/23 03:09:21;;;;;;;9.43;9.02;;;;;;;11.57;100.00;100733.63;5085917;28;20031;-63
2022/10/23 03:11:47;;;;;;;9.43;9.02;;;;;;;11.60;100.00;100744.75;5089961;28;20024;-64
2022/10/23 03:14:13;;;;;;;9.07;8.68;;;;;;;11.58;100.00;100746.75;5084739;28;20115;-63
2022/10/23 03:16:38;;;;;;;9.00;8.60;;;;;;;11.45;100.00;100741.16;5086721;28;20279;-63
2022/10/23 03:19:04;;;;;;;9.20;8.80;;;;;;;11.56;100.00;100747.94;5085931;28;20033;-63
2022/10/23 03:21:29;;;;;;;9.98;9.48;;;;;;;11.51;100.00;100751.09;5084067;28;20028;-63
2022/10/23 03:23:55;;;;;;;9.63;9.13;;;;;;;11.51;100.00;100753.75;5085038;28;20511;-62
2022/10/23 03:26:25;;;;;;;9.52;9.13;;;;;;;11.57;100.00;100760.22;5084283;28;20375;-63
2022/10/23 03:28:52;;;;;;;9.63;9.18;;;;;;;11.57;100.00;100765.53;5080744;28;20029;-63
2022/10/23 03:31:18;;;;;;;9.55;9.13;;;;;;;11.52;100.00;100760.72;5083318;28;20071;-63
2022/10/23 03:33:43;;;;;;;9.90;9.40;;;;;;;11.53;100.00;100766.88;5088421;28;20048;-63
2022/10/23 03:36:09;;;;;;;9.52;9.10;;;;;;;11.51;100.00;100776.84;5083661;28;20031;-63
2022/10/23 03:38:34;;;;;;;9.30;8.90;;;;;;;11.47;100.00;100775.56;5086857;28;20016;-63
2022/10/23 03:41:00;;;;;;;9.70;9.20;;;;;;;11.50;100.00;100777.84;5083755;28;20101;-63
2022/10/23 03:43:25;;;;;;;9.35;8.95;;;;;;;11.45;100.00;100777.53;5081008;28;20476;-63
2022/10/23 03:45:51;;;;;;;10.35;9.85;;;;;;;11.46;100.00;100779.22;5079707;28;20029;-63
2022/10/23 03:48:16;;;;;;;9.35;8.95;;;;;;;11.53;100.00;100794.28;5080259;28;20020;-63
2022/10/23 03:50:43;;;;;;;9.77;9.27;;;;;;;11.55;100.00;100794.09;5084832;28;20158;-63
2022/10/23 03:53:08;;;;;;;9.40;9.00;;;;;;;11.58;100.00;100794.56;5082908;28;20434;-63
2022/10/23 03:55:34;;;;;;;9.38;8.98;;;;;;;11.63;100.00;100788.75;5084335;28;20020;-63
2022/10/23 03:57:59;;;;;;;9.20;8.80;;;;;;;11.61;100.00;100788.09;5089730;28;20023;-63
2022/10/23 04:00:25;;;;;;;10.15;9.65;;;;;;;11.56;100.00;100795.75;5082869;28;20029;-62
2022/10/23 04:02:50;;;;;;;9.63;9.13;;;;;;;11.64;100.00;100798.38;5080683;28;20030;-63
2022/10/23 04:05:16;;;;;;;8.95;8.55;;;;;;;11.66;100.00;100799.00;5086046;28;20499;-62
2022/10/23 04:07:42;;;;;;;9.15;8.75;;;;;;;11.60;100.00;100803.22;5085418;28;20032;-62
2022/10/23 04:10:08;;;;;;;9.70;9.20;;;;;;;11.69;100.00;100801.34;5083358;28;20051;-62
2022/10/23 04:12:34;;;;;;;9.10;8.70;;;;;;;11.71;100.00;100809.13;5084710;28;20051;-62
2022/10/23 04:14:59;;;;;;;9.60;9.15;;;;;;;11.68;100.00;100814.78;5087762;28;20032;-62
2022/10/23 04:17:25;;;;;;;9.10;8.70;;;;;;;11.70;100.00;100816.28;5084035;28;20020;-62
2022/10/23 04:19:50;;;;;;;9.20;8.80;;;;;;;11.66;100.00;100814.13;5086137;28;20501;-63
2022/10/23 04:22:16;;;;;;;9.48;9.05;;;;;;;11.61;100.00;100818.16;5086272;28;20047;-62
2022/10/23 04:24:45;;;;;;;9.27;8.88;;;;;;;11.67;100.00;100823.75;5087840;28;20077;-63
2022/10/23 04:27:12;;;;;;;9.00;8.60;;;;;;;11.72;100.00;100821.41;5083648;28;20020;-62
2022/10/23 04:29:37;;;;;;;9.18;8.77;;;;;;;11.79;100.00;100827.69;5084419;28;20028;-63
2022/10/23 04:32:03;;;;;;;9.20;8.80;;;;;;;11.71;100.00;100831.22;5090549;28;20038;-63
2022/10/23 04:34:28;;;;;;;9.23;8.82;;;;;;;11.74;100.00;100830.84;5080557;28;20063;-64
2022/10/23 04:36:54;;;;;;;9.90;9.40;;;;;;;11.74;100.00;100833.50;5083955;28;20115;-63
2022/10/23 04:39:19;;;;;;;9.65;9.18;;;;;;;11.78;100.00;100832.16;5084511;28;20589;-63
2022/10/23 04:41:45;;;;;;;9.80;9.30;;;;;;;11.83;100.00;100837.81;5084424;28;20031;-63
2022/10/23 04:44:10;;;;;;;9.07;8.68;;;;;;;11.78;100.00;100841.97;5081357;28;20020;-63
2022/10/23 04:46:36;;;;;;;9.00;8.60;;;;;;;11.73;100.00;100839.00;5084032;28;20024;-63
2022/10/23 04:49:01;;;;;;;9.27;8.88;;;;;;;11.69;100.00;100848.34;5086817;28;20020;-63
2022/10/23 04:51:27;;;;;;;9.50;9.10;;;;;;;11.68;100.00;100851.97;5085790;28;20059;-63
2022/10/23 04:53:52;;;;;;;9.73;9.23;;;;;;;11.66;100.00;100856.66;5087358;28;20058;-63
2022/10/23 04:56:18;;;;;;;9.48;9.07;;;;;;;11.64;100.00;100859.47;5080822;28;20029;-63
2022/10/23 04:58:43;;;;;;;9.70;9.20;;;;;;;11.80;100.00;100851.44;5090635;28;20027;-63
2022/10/23 05:01:09;;;;;;;9.40;9.00;;;;;;;11.69;100.00;100853.66;5082999;28;20031;-63
2022/10/23 05:03:36;;;;;;;9.38;8.98;;;;;;;11.66;100.00;100859.31;5081916;28;20024;-63
2022/10/23 05:06:02;;;;;;;9.55;9.15;;;;;;;11.70;100.00;100869.44;5082739;28;20028;-63
2022/10/23 05:08:28;;;;;;;9.43;9.02;;;;;;;11.61;100.00;100862.50;5081310;28;20520;-62
2022/10/23 05:10:53;;;;;;;9.10;8.70;;;;;;;11.67;100.00;100872.41;5086818;28;20028;-63
2022/10/23 05:13:19;;;;;;;9.65;9.18;;;;;;;11.56;100.00;100878.94;5083814;28;20394;-62
2022/10/23 05:15:49;;;;;;;9.68;9.18;;;;;;;11.56;100.00;100875.47;5083118;28;20032;-63
2022/10/23 05:18:24;;;;;;;9.35;8.95;;;;;;;11.55;100.00;100882.63;5087333;28;20432;-63
2022/10/23 05:20:55;;;;;;;9.25;8.85;;;;;;;11.69;100.00;100885.56;5083112;28;20024;-63
2022/10/23 05:23:23;;;;;;;9.82;9.32;;;;;;;11.74;100.00;100891.16;5084722;28;20501;-63
2022/10/23 05:25:49;;;;;;;9.55;9.13;;;;;;;11.77;100.00;100893.47;5079078;28;20032;-63
2022/10/23 05:28:14;;;;;;;9.00;8.60;;;;;;;11.73;100.00;100892.16;5084376;28;20023;-63
2022/10/23 05:30:41;;;;;;;9.05;8.65;;;;;;;11.77;100.00;100894.31;5086578;28;20031;-64
2022/10/23 05:33:06;;;;;;;9.15;8.75;;;;;;;11.84;100.00;100905.13;5083214;28;20019;-64
2022/10/23 05:35:32;;;;;;;9.23;8.82;;;;;;;11.83;100.00;100906.13;5077612;28;20036;-64
2022/10/23 05:38:00;;;;;;;8.88;8.48;;;;;;;11.86;100.00;100903.09;5090381;28;20030;-63
2022/10/23 05:40:26;;;;;;;8.82;8.43;;;;;;;11.89;100.00;100900.91;5084942;28;20426;-64
2022/10/23 05:42:52;;;;;;;9.35;8.95;;;;;;;11.92;100.00;100906.91;5086284;28;20023;-63
2022/10/23 05:45:17;;;;;;;9.77;9.27;;;;;;;11.91;100.00;100908.72;5082428;28;20020;-64
2022/10/23 05:47:44;;;;;;;9.45;9.05;;;;;;;11.82;100.00;100915.88;5079396;28;20035;-64
2022/10/23 05:50:10;;;;;;;8.82;8.43;;;;;;;11.83;100.00;100916.75;5079783;28;20511;-62
2022/10/23 05:52:35;;;;;;;9.15;8.75;;;;;;;11.91;100.00;100907.91;5082624;28;20061;-63
2022/10/23 05:55:01;;;;;;;8.90;8.50;;;;;;;12.01;100.00;100922.63;5084516;28;20467;-63
2022/10/23 05:57:26;;;;;;;9.32;8.93;;;;;;;11.99;100.00;100916.66;5084402;28;20089;-62
2022/10/23 05:59:53;;;;;;;9.23;8.82;;;;;;;12.01;100.00;100924.47;5077491;28;20033;-63
2022/10/23 06:02:18;;;;;;;9.48;9.07;;;;;;;11.99;100.00;100929.97;5081412;28;20091;-63
2022/10/23 06:04:44;;;;;;;9.38;8.98;;;;;;;11.97;100.00;100928.44;5080475;28;20164;-64
2022/10/23 06:07:09;;;;;;;9.02;8.63;;;;;;;11.90;100.00;100928.34;5085031;28;20016;-64
2022/10/23 06:09:35;;;;;;;9.75;9.25;;;;;;;11.83;100.00;100925.56;5078963;28;20481;-63
2022/10/23 06:12:01;;;;;;;10.02;9.52;;;;;;;11.93;100.00;100924.50;5080779;28;20455;-64
2022/10/23 06:14:27;;;;;;;9.20;8.80;;;;;;;11.90;100.00;100925.69;5084829;28;20424;-63
2022/10/23 06:16:52;;;;;;;10.25;9.75;;;;;;;11.99;100.00;100929.13;5084503;28;20035;-64
2022/10/23 06:19:18;;;;;;;9.40;9.00;;;;;;;12.23;100.00;100929.00;5082519;28;20475;-63
2022/10/23 06:21:43;;;;;;;9.80;9.30;;;;;;;12.36;100.00;100923.91;5084408;28;20471;-63
2022/10/23 06:24:10;;;;;;;9.20;8.80;;;;;;;12.36;100.00;100926.56;5082304;28;20380;-63
2022/10/23 06:26:35;;;;;;;9.52;9.13;;;;;;;12.18;100.00;100939.31;5085265;28;20020;-63
2022/10/23 06:29:01;;;;;;;9.40;9.00;;;;;;;12.25;100.00;100928.81;5085868;28;20482;-63
2022/10/23 06:31:27;;;;;;;9.10;8.70;;;;;;;12.22;100.00;100923.84;5087539;28;20031;-63
2022/10/23 06:33:58;;;;;;;10.98;10.40;;;;;;;12.19;100.00;100932.97;5084647;28;20507;-63
2022/10/23 06:36:24;;;;;;;9.30;8.90;;;;;;;12.31;100.00;100928.94;5085169;28;20028;-63
2022/10/23 06:38:50;;;;;;;9.60;9.20;;;;;;;12.27;100.00;100932.97;5090153;28;20043;-62
2022/10/23 06:41:18;;;;;;;9.23;8.82;;;;;;;12.10;100.00;100931.38;5088873;28;20036;-63
2022/10/23 06:43:46;;;;;;;9.43;9.02;;;;;;;12.18;100.00;100934.00;5082173;28;20386;-63
2022/10/23 06:46:11;;;;;;;9.90;9.40;;;;;;;12.30;100.00;100937.09;5086283;28;20109;-63
2022/10/23 06:48:37;;;;;;;9.40;9.00;;;;;;;12.41;100.00;100932.22;5091913;28;20104;-64
2022/10/23 06:51:07;;;;;;;9.32;8.93;;;;;;;12.48;100.00;100936.81;5085155;28;20041;-63
2022/10/23 06:53:34;;;;;;;9.32;8.93;;;;;;;12.49;100.00;100939.31;5088795;28;20474;-64
2022/10/23 06:56:01;;;;;;;9.43;9.02;;;;;;;12.63;100.00;100935.88;5084469;28;20451;-64
2022/10/23 06:58:27;;;;;;;9.88;9.38;;;;;;;12.71;100.00;100935.81;5084887;28;20039;-65
2022/10/23 07:00:52;;;;;;;9.75;9.27;;;;;;;12.78;100.00;100941.25;5091141;28;20471;-64
2022/10/23 07:03:18;;;;;;;10.52;10.02;;;;;;;13.02;100.00;100926.88;5085004;28;20021;-63
2022/10/23 07:05:46;;;;;;;9.45;9.05;;;;;;;13.22;100.00;100940.53;5084083;28;20024;-63
2022/10/23 07:08:12;;;;;;;9.45;9.05;;;;;;;13.20;100.00;100945.22;5082074;28;20016;-64
2022/10/23 07:10:37;;;;;;;9.18;8.77;;;;;;;13.13;100.00;100944.25;5081992;28;20042;-64
2022/10/23 07:13:03;;;;;;;9.27;8.88;;;;;;;13.19;100.00;100943.53;5086847;28;20021;-63
2022/10/23 07:15:28;;;;;;;9.60;9.20;;;;;;;13.20;100.00;100945.22;5085010;28;20024;-66
2022/10/23 07:17:54;;;;;;;9.80;9.35;;;;;;;13.38;100.00;100947.56;5082810;28;20027;-64
2022/10/23 07:20:20;;;;;;;9.75;9.27;;;;;;;13.60;100.00;100951.97;5082874;28;20032;-64
2022/10/23 07:22:51;;;;;;;10.05;9.55;;;;;;;13.45;100.00;100953.81;5086485;28;20032;-64
2022/10/23 07:25:17;;;;;;;9.63;9.23;;;;;;;13.25;100.00;100951.66;5080804;28;20024;-64
2022/10/23 07:27:42;;;;;;;10.27;9.77;;;;;;;13.25;100.00;100958.84;5082437;28;20029;-65
2022/10/23 07:30:09;;;;;;;10.30;9.80;;;;;;;13.23;100.00;100963.53;5086966;28;20533;-64
2022/10/23 07:32:34;;;;;;;10.07;9.57;;;;;;;13.13;100.00;100966.38;5083527;28;20028;-65
2022/10/23 07:35:00;;;;;;;11.02;10.45;;;;;;;13.24;100.00;100970.50;5080158;28;20024;-65
2022/10/23 07:37:28;;;;;;;10.18;9.68;;;;;;;13.14;100.00;100962.72;5083306;28;20016;-65
2022/10/23 07:39:54;;;;;;;9.90;9.40;;;;;;;13.09;100.00;100969.63;5088198;28;20032;-65
2022/10/23 07:42:19;;;;;;;9.88;9.38;;;;;;;13.08;100.00;100978.63;5083061;28;20037;-61
2022/10/23 07:44:45;;;;;;;10.38;9.88;;;;;;;13.04;100.00;100977.31;5085494;28;20103;-61
2022/10/23 07:47:10;;;;;;;9.90;9.40;;;;;;;13.33;100.00;100985.41;5088851;28;20413;-60
2022/10/23 07:49:36;;;;;;;10.20;9.70;;;;;;;13.11;100.00;100981.72;5074476;28;20537;-64
2022/10/23 07:52:03;;;;;;;9.50;9.10;;;;;;;13.37;100.00;100977.88;5089212;28;20024;-64
2022/10/23 07:54:28;;;;;;;10.15;9.65;;;;;;;13.46;100.00;100990.09;5085508;28;20050;-63
2022/10/23 07:56:54;;;;;;;9.35;8.95;;;;;;;13.41;100.00;100987.97;5083177;28;20047;-62
2022/10/23 07:59:19;;;;;;;9.70;9.25;;;;;;;13.43;100.00;100991.28;5082903;28;20049;-63
2022/10/23 08:01:47;;;;;;;10.02;9.52;;;;;;;13.62;100.00;100992.59;5082321;28;20047;-64
2022/10/23 08:04:13;;;;;;;9.00;8.60;;;;;;;13.65;100.00;100996.72;5082473;28;20078;-64
2022/10/23 08:06:38;;;;;;;9.85;9.35;;;;;;;13.66;100.00;100999.22;5080232;28;20020;-63
2022/10/23 08:09:04;;;;;;;9.93;9.43;;;;;;;13.64;100.00;100987.91;5085449;28;20028;-64
2022/10/23 08:11:34;;;;;;;9.60;9.20;;;;;;;13.70;100.00;100991.69;5082571;28;20042;-64
2022/10/23 08:14:03;;;;;;;9.38;8.98;;;;;;;13.90;100.00;101002.63;5084118;28;20376;-63
2022/10/23 08:16:29;;;;;;;9.38;8.98;;;;;;;13.95;100.00;100993.03;5087866;28;20502;-64
2022/10/23 08:18:55;;;;;;;9.85;9.35;;;;;;;14.07;100.00;101002.22;5087195;28;20032;-63
2022/10/23 08:21:20;;;;;;;9.95;9.45;;;;;;;14.31;100.00;100993.06;5078113;28;20463;-64
2022/10/23 08:23:46;;;;;;;9.80;9.30;;;;;;;14.33;100.00;100992.91;5089542;28;20465;-63
2022/10/23 08:26:13;;;;;;;9.52;9.13;;;;;;;14.30;100.00;100995.94;5087106;28;20020;-64
2022/10/23 08:28:39;;;;;;;10.13;9.63;;;;;;;14.32;100.00;100996.56;5083780;28;20320;-64
2022/10/23 08:31:17;;;;;;;9.50;9.10;;;;;;;14.64;100.00;100998.81;5088306;28;20020;-63
2022/10/23 08:33:43;;;;;;;11.43;10.82;;;;;;;14.83;100.00;100992.00;5083187;28;20110;-63
2022/10/23 08:36:21;;;;;;;10.27;9.77;;;;;;;14.79;100.00;100996.09;5085381;28;20432;-62
2022/10/23 08:38:47;;;;;;;10.30;9.80;;;;;;;14.85;100.00;100994.50;5080491;28;20432;-63
2022/10/23 08:41:28;;;;;;;10.20;9.70;;;;;;;14.71;100.00;101001.56;5084827;28;20134;-64
2022/10/23 08:44:04;;;;;;;10.50;10.00;;;;;;;14.75;100.00;101004.66;5081642;28;20517;-65
2022/10/23 08:46:36;;;;;;;10.10;9.60;;;;;;;14.81;100.00;101001.25;5080133;28;20075;-66
2022/10/23 08:49:16;;;;;;;10.55;10.05;;;;;;;14.92;100.00;101006.09;5085426;28;20036;-64
2022/10/23 08:51:47;;;;;;;10.60;10.10;;;;;;;14.81;100.00;101004.72;5082758;28;20055;-63
2022/10/23 08:54:25;;;;;;;11.10;10.60;;;;;;;14.83;100.00;101016.03;5084177;28;20442;-64
2022/10/23 08:57:07;;;;;;;10.68;10.18;;;;;;;14.77;100.00;101018.69;5083299;28;20078;-65
2022/10/23 08:59:45;;;;;;;10.20;9.70;;;;;;;14.85;100.00;101022.06;5080927;28;20028;-64
2022/10/23 09:02:19;;;;;;;10.88;10.38;;;;;;;14.81;100.00;101023.44;5081594;28;20062;-65
2022/10/23 09:04:47;;;;;;;11.02;10.52;;;;;;;14.90;100.00;101024.13;5087491;28;20039;-65
2022/10/23 09:07:57;;;;;;;10.88;10.38;;;;;;;14.97;100.00;101021.53;5079241;28;20063;-66
2022/10/23 09:11:07;;;;;;;10.05;9.55;;;;;;;14.95;100.00;101016.38;5069309;28;20060;-64
2022/10/23 09:14:01;;;;;;;10.57;10.07;;;;;;;14.95;100.00;101024.41;5068253;28;20036;-64
2022/10/23 09:16:56;;;;;;;9.80;9.37;;;;;;;15.02;100.00;101021.78;5085038;28;20126;-62
2022/10/23 09:19:26;;;;;;;9.90;9.45;;;;;;;14.99;100.00;101022.19;5084377;28;20027;-64
2022/10/23 09:21:54;;;;;;;10.65;10.15;;;;;;;15.17;100.00;101028.72;5086110;28;20043;-64
2022/10/23 09:24:22;;;;;;;10.75;10.25;;;;;;;15.25;100.00;101033.09;5082276;28;20028;-64
2022/10/23 09:26:50;;;;;;;10.73;10.23;;;;;;;15.22;100.00;101030.81;5083167;28;20031;-64
2022/10/23 09:29:31;;;;;;;10.07;9.60;;;;;;;15.31;100.00;101029.66;5084639;28;20103;-64
2022/10/23 09:32:03;;;;;;;10.02;9.52;;;;;;;15.44;100.00;101031.59;5079876;28;20020;-64
2022/10/23 09:34:32;;;;;;;10.63;10.13;;;;;;;15.58;100.00;101029.84;5077336;28;20024;-64
2022/10/23 09:37:00;;;;;;;10.15;9.65;;;;;;;15.66;100.00;101035.91;5079060;28;20529;-65
2022/10/23 09:39:32;;;;;;;9.80;9.40;;;;;;;15.94;100.00;101037.75;5086627;28;20024;-64
2022/10/23 09:42:11;;;;;;;10.38;9.88;;;;;;;16.10;100.00;101034.72;5082014;28;20036;-64
2022/10/23 09:44:48;;;;;;;10.18;9.68;;;;;;;16.19;100.00;101030.84;5082563;28;20040;-64
2022/10/23 09:47:23;;;;;;;10.07;9.57;;;;;;;16.07;100.00;101027.06;5081038;28;20072;-64
2022/10/23 09:49:54;;;;;;;10.30;9.80;;;;;;;15.84;100.00;101031.91;5077746;28;20407;-64
2022/10/23 09:52:36;;;;;;;10.07;9.60;;;;;;;15.90;100.00;101037.28;5080603;28;20023;-65
2022/10/23 09:55:19;;;;;;;9.82;9.40;;;;;;;15.97;100.00;101045.34;5077655;28;20043;-65
2022/10/23 09:57:45;;;;;;;10.48;9.98;;;;;;;15.80;100.00;101044.03;5079074;28;20028;-63
2022/10/23 10:00:19;;;;;;;10.10;9.60;;;;;;;15.85;100.00;101044.25;5073137;28;20384;-64
2022/10/23 10:03:05;;;;;;;10.17;9.67;;;;;;;15.97;100.00;101048.03;5074342;28;20024;-64
2022/10/23 10:05:35;;;;;;;9.90;9.50;;;;;;;16.02;100.00;101048.28;5087747;28;20612;-64
2022/10/23 10:08:26;;;;;;;10.13;9.63;;;;;;;15.91;100.00;101041.63;5079021;28;20024;-63
2022/10/23 10:11:06;;;;;;;9.70;9.30;;;;;;;15.87;100.00;101043.03;5086203;28;20035;-65
2022/10/23 10:13:32;;;;;;;9.70;9.30;;;;;;;15.82;100.00;101041.97;5089691;28;20024;-64
2022/10/23 10:16:05;;;;;;;10.07;9.57;;;;;;;15.91;100.00;101043.47;5087035;28;20027;-65
2022/10/23 10:18:42;;;;;;;9.70;9.30;;;;;;;15.95;100.00;101034.03;5083465;28;20028;-64
2022/10/23 10:21:27;;;;;;;9.80;9.38;;;;;;;16.27;100.00;101044.06;5083523;28;20062;-63
2022/10/23 10:24:04;;;;;;;9.70;9.30;;;;;;;16.37;100.00;101035.66;5081597;28;20387;-64
2022/10/23 10:26:41;;;;;;;10.60;10.10;;;;;;;16.60;100.00;101046.06;5085533;28;20047;-64
2022/10/23 10:29:22;;;;;;;9.75;9.35;;;;;;;16.54;100.00;101042.31;5080440;28;20039;-64
2022/10/23 10:32:00;;;;;;;9.63;9.23;;;;;;;16.51;100.00;101039.19;5080588;28;20027;-65
2022/10/23 10:34:42;;;;;;;9.77;9.38;;;;;;;16.73;100.00;101040.75;5079995;28;20052;-64
2022/10/23 10:37:45;;;;;;;9.73;9.32;;;;;;;16.96;100.00;101035.00;5082953;28;20110;-64
2022/10/23 10:40:30;;;;;;;10.18;9.68;;;;;;;17.19;100.00;101023.91;5084921;28;20073;-64
2022/10/23 10:43:14;;;;;;;10.52;10.02;;;;;;;17.07;100.00;101031.75;5081077;28;20029;-65
2022/10/23 10:46:06;;;;;;;10.10;9.60;;;;;;;17.28;100.00;101035.25;5080180;28;20391;-64
2022/10/23 10:48:56;;;;;;;9.90;9.50;;;;;;;16.91;100.00;101012.56;5067453;28;20032;-64
2022/10/23 10:52:07;;;;;;;9.73;9.32;;;;;;;17.06;100.00;101019.38;5079469;28;20131;-64
2022/10/23 10:54:51;;;;;;;9.88;9.48;;;;;;;17.32;100.00;101023.91;5073705;28;20041;-65
2022/10/23 10:57:41;;;;;;;10.43;9.93;;;;;;;17.22;100.00;101018.13;5084322;28;20036;-65
2022/10/23 11:00:27;;;;;;;10.13;9.63;;;;;;;17.28;100.00;101016.50;5076765;28;20451;-64
2022/10/23 11:03:27;;;;;;;10.32;9.82;;;;;;;17.29;100.00;101021.63;5086310;28;20020;-65
2022/10/23 11:05:56;;;;;;;10.60;10.10;;;;;;;16.93;100.00;101008.63;5082429;28;20532;-64
2022/10/23 11:08:38;;;;;;;10.32;9.82;;;;;;;17.19;100.00;101010.50;5089391;28;20031;-63
2022/10/23 11:11:16;;;;;;;10.40;9.90;;;;;;;17.33;100.00;101025.56;5085907;28;20161;-65
2022/10/23 11:13:43;;;;;;;10.52;10.02;;;;;;;17.20;100.00;101022.06;5080648;28;20044;-64
2022/10/23 11:16:18;;;;;;;10.57;10.07;;;;;;;17.02;100.00;101020.78;5085577;28;20027;-64
2022/10/23 11:18:49;;;;;;;10.57;10.07;;;;;;;17.06;100.00;101018.53;5088620;28;20032;-64
2022/10/23 11:21:28;;;;;;;10.43;9.93;;;;;;;16.91;100.00;101029.47;5078126;28;20051;-65
2022/10/23 11:24:26;;;;;;;10.25;9.75;;;;;;;17.11;100.00;101027.63;5088663;28;20379;-65
2022/10/23 11:27:25;;;;;;;10.63;10.13;;;;;;;17.03;100.00;101025.13;5078365;28;20413;-63
2022/10/23 11:30:21;;;;;;;10.13;9.63;;;;;;;17.05;100.00;101030.31;5085746;28;20023;-63